Forside
METAR-TAF:

METAR-TAF

Lufthavne :

Guilin, Kina

Breddekreds: 25-20N, længdekreds: 110-18E, højde: 166 m

Aktuelle vejr

Denne rapport blev lavet for 26 minutter siden, kl. 01:00 UTC
Vind 4 kt fra nordøst
Temperatur 6°C
Fugtighed 93%
Tryk 1024 hPa
Sigt: 7000 m
Spredte skyer i en højde af 2300 ft
Overskyet i en højde af 4000 ft

METAR: ZGKL 210100Z 05002MPS 7000 SCT023 OVC040 06/05 Q1024 NOSIG

Tid: 09:26 (01:26 UTC)

Vejrudsigter

Denne rapport blev lavet for 6 timer og 13 minutter siden, kl. 19:13 UTC
Foreløbig gælder fra 21 på 00 UTC til 21 på 24 UTC
Vind 4 kt fra nordøst
Sigt: 5000 m
Nogle få skyer i en højde af 1000 ft
Spredte skyer i en højde af 2000 ft
Overskyet i en højde af 3300 ft
let regn, dis

TAF: ZGKL 201913Z 2100/2124 05002MPS 5000 -RA BR FEW010 SCT020 OVC033 TX08/2107Z TN04/2122Z

Vejrobservationer og prognoser fra mere end 4000 lufthavne (METAR og TAF).

De gule og røde prikker repræsenterer de meteorologiske stationer.

Flyt musen over at se navnet på stationen.

Så klik over at se vejr observationer og prognoser.

At skifte det kort: Klik på de grønne knapper med et sort kors for at zoome ind; på den grønne knap med en bindestreg for at zoome ud; eller på de grønne pile for tilstødende kort.


METAR-TAF: